createdAt,value
2018-10-03T00:00:03.127Z,10.7
2018-10-03T00:15:02.459Z,10.7
2018-10-03T00:30:02.897Z,10.6
2018-10-03T00:45:03.257Z,10.7
2018-10-03T01:00:02.712Z,10.6
2018-10-03T01:15:03.093Z,10.6
2018-10-03T01:30:02.671Z,10.6
2018-10-03T01:45:03.153Z,10.6
2018-10-03T02:00:02.609Z,10.6
2018-10-03T02:15:03.038Z,10.6
2018-10-03T02:30:02.504Z,10.6
2018-10-03T02:45:03.476Z,10.7
2018-10-03T03:00:02.877Z,10.8
2018-10-03T03:15:03.265Z,10.8
2018-10-03T03:30:02.695Z,10.6
2018-10-03T03:45:03.068Z,10.6
2018-10-03T04:00:02.494Z,10.4
2018-10-03T04:15:02.878Z,10.4
2018-10-03T04:30:03.338Z,10.4
2018-10-03T04:45:02.685Z,10.4
2018-10-03T05:00:03.088Z,10.6
2018-10-03T05:15:02.558Z,10.6
2018-10-03T05:30:03.003Z,10.8
2018-10-03T05:45:02.385Z,10.9
2018-10-03T06:00:02.757Z,11
2018-10-03T06:15:03.138Z,11.1
2018-10-03T06:30:02.645Z,11.2
2018-10-03T06:45:02.984Z,11.4
2018-10-03T07:00:02.373Z,11.6
2018-10-03T07:15:02.748Z,11.8
2018-10-03T07:30:03.177Z,11.9
2018-10-03T07:45:02.536Z,12
2018-10-03T08:00:02.884Z,11.9
2018-10-03T08:15:03.239Z,11.9
2018-10-03T08:30:02.692Z,12.1
2018-10-03T08:45:03.052Z,12.2
2018-10-03T09:00:02.436Z,12.5
2018-10-03T09:15:02.794Z,13
2018-10-03T09:30:03.253Z,13.6
2018-10-03T09:45:02.636Z,13.9
2018-10-03T10:00:02.987Z,14.2
2018-10-03T10:15:02.365Z,15.1
2018-10-03T10:30:02.790Z,14.8
2018-10-03T10:45:03.150Z,14.8
2018-10-03T11:00:02.479Z,14.6
2018-10-03T11:15:02.851Z,14.3
2018-10-03T11:30:03.261Z,14.2
2018-10-03T11:45:02.642Z,14.1
2018-10-03T12:00:02.991Z,14.1
2018-10-03T12:15:02.365Z,13.8
2018-10-03T12:30:02.808Z,13.6
2018-10-03T12:45:03.196Z,13.4
2018-10-03T13:00:02.571Z,13.6
2018-10-03T13:15:02.909Z,13.8
2018-10-03T13:30:02.351Z,14.2
2018-10-03T13:45:02.733Z,13.9
2018-10-03T14:00:03.221Z,13.7
2018-10-03T14:15:02.562Z,13.4
2018-10-03T14:30:02.995Z,13.1
2018-10-03T14:45:02.361Z,12.8
2018-10-03T15:00:02.722Z,13.6
2018-10-03T15:15:03.059Z,13.4
2018-10-03T15:30:02.503Z,13.2
2018-10-03T15:45:02.990Z,13.2
2018-10-03T16:00:02.355Z,13.1
2018-10-03T16:15:02.754Z,12.9
2018-10-03T16:30:03.176Z,12.9
2018-10-03T16:45:02.586Z,12.8
2018-10-03T17:00:02.970Z,12.5
2018-10-03T17:15:02.362Z,12.2
2018-10-03T17:30:03.034Z,12.1
2018-10-03T17:45:02.393Z,11.5
2018-10-03T18:00:02.971Z,11.1
2018-10-03T18:15:02.450Z,10.8
2018-10-03T18:30:02.957Z,10.4
2018-10-03T18:45:03.652Z,10.1
2018-10-03T19:00:03.037Z,10
2018-10-03T19:15:02.544Z,9.9
2018-10-03T19:30:02.990Z,9.9
2018-10-03T19:45:02.378Z,9.4
2018-10-03T20:00:02.765Z,9.2
2018-10-03T20:15:03.120Z,9.2
2018-10-03T20:30:02.537Z,8.9
2018-10-03T20:45:02.878Z,8.8
2018-10-03T21:00:03.264Z,8.6
2018-10-03T21:15:02.654Z,8.7
2018-10-03T21:30:03.125Z,8.6
2018-10-03T21:45:02.630Z,8.1
2018-10-03T22:00:03.129Z,8.1
2018-10-03T22:15:02.623Z,7.9
2018-10-03T22:30:03.237Z,8.2
2018-10-03T22:45:02.639Z,8
2018-10-03T23:00:03.054Z,7.8
2018-10-03T23:15:02.626Z,7.6
2018-10-03T23:30:03.221Z,7.6
2018-10-03T23:45:02.562Z,7.8
